sensor_id;sensor_type;location;lat;lon;timestamp;pressure;altitude;pressure_sealevel;temperature;humidity
57859;BME280;49153;45.568;11.894;2023-02-11T00:00:10;103512.16;;;-0.96;62.97
57859;BME280;49153;45.568;11.894;2023-02-11T00:02:40;103509.47;;;-0.99;62.98
57859;BME280;49153;45.568;11.894;2023-02-11T00:05:05;103505.25;;;-0.94;63.38
57859;BME280;49153;45.568;11.894;2023-02-11T00:07:32;103486.16;;;-0.99;63.36
57859;BME280;49153;45.568;11.894;2023-02-11T00:09:57;103474.78;;;-1.05;63.15
57859;BME280;49153;45.568;11.894;2023-02-11T00:12:23;103493.97;;;-0.97;63.42
57859;BME280;49153;45.568;11.894;2023-02-11T00:14:49;103491.44;;;-0.96;63.42
57859;BME280;49153;45.568;11.894;2023-02-11T00:17:15;103490.63;;;-0.92;63.87
57859;BME280;49153;45.568;11.894;2023-02-11T00:19:40;103475.94;;;-0.93;63.68
57859;BME280;49153;45.568;11.894;2023-02-11T00:22:06;103488.84;;;-0.94;63.96
57859;BME280;49153;45.568;11.894;2023-02-11T00:24:31;103487.91;;;-0.98;63.91
57859;BME280;49153;45.568;11.894;2023-02-11T00:26:57;103505.25;;;-0.94;64.17
57859;BME280;49153;45.568;11.894;2023-02-11T00:29:26;103497.41;;;-0.98;64.13
57859;BME280;49153;45.568;11.894;2023-02-11T00:31:51;103498.41;;;-0.92;63.75
57859;BME280;49153;45.568;11.894;2023-02-11T00:34:19;103508.03;;;-0.86;63.79
57859;BME280;49153;45.568;11.894;2023-02-11T00:36:45;103479.31;;;-0.95;63.78
57859;BME280;49153;45.568;11.894;2023-02-11T00:39:10;103510.63;;;-0.86;64.30
57859;BME280;49153;45.568;11.894;2023-02-11T00:41:38;103495.81;;;-0.92;64.04
57859;BME280;49153;45.568;11.894;2023-02-11T00:44:07;103483.34;;;-1.09;64.17
57859;BME280;49153;45.568;11.894;2023-02-11T00:46:32;103487.38;;;-1.23;65.17
57859;BME280;49153;45.568;11.894;2023-02-11T00:48:58;103468.81;;;-1.43;64.84
57859;BME280;49153;45.568;11.894;2023-02-11T00:51:30;103490.66;;;-1.31;65.40
57859;BME280;49153;45.568;11.894;2023-02-11T00:53:55;103497.63;;;-1.27;65.76
57859;BME280;49153;45.568;11.894;2023-02-11T00:56:21;103500.31;;;-1.23;65.01
57859;BME280;49153;45.568;11.894;2023-02-11T00:58:47;103474.34;;;-1.27;65.37
57859;BME280;49153;45.568;11.894;2023-02-11T01:01:13;103456.94;;;-1.34;65.63
57859;BME280;49153;45.568;11.894;2023-02-11T01:07:00;103485.56;;;-1.27;65.55
57859;BME280;49153;45.568;11.894;2023-02-11T01:09:26;103479.31;;;-1.36;65.44
57859;BME280;49153;45.568;11.894;2023-02-11T01:11:51;103473.91;;;-1.46;65.76
57859;BME280;49153;45.568;11.894;2023-02-11T01:14:17;103487.78;;;-1.43;66.25
57859;BME280;49153;45.568;11.894;2023-02-11T01:16:42;103486.78;;;-1.49;66.28
57859;BME280;49153;45.568;11.894;2023-02-11T01:19:08;103497.16;;;-1.48;65.85
57859;BME280;49153;45.568;11.894;2023-02-11T01:21:33;103479.03;;;-1.48;65.83
57859;BME280;49153;45.568;11.894;2023-02-11T01:23:59;103486.31;;;-1.33;66.17
57859;BME280;49153;45.568;11.894;2023-02-11T01:26:24;103486.19;;;-1.38;65.89
57859;BME280;49153;45.568;11.894;2023-02-11T01:28:50;103469.47;;;-1.52;66.14
57859;BME280;49153;45.568;11.894;2023-02-11T01:31:16;103471.03;;;-1.60;66.66
57859;BME280;49153;45.568;11.894;2023-02-11T01:33:41;103484.75;;;-1.62;66.75
57859;BME280;49153;45.568;11.894;2023-02-11T01:36:07;103474.34;;;-1.65;66.97
57859;BME280;49153;45.568;11.894;2023-02-11T01:38:33;103483.63;;;-1.74;67.84
57859;BME280;49153;45.568;11.894;2023-02-11T01:41:09;103477.50;;;-1.77;67.26
57859;BME280;49153;45.568;11.894;2023-02-11T01:43:39;103463.66;;;-1.79;67.62
57859;BME280;49153;45.568;11.894;2023-02-11T01:49:11;103464.97;;;-1.60;67.49
57859;BME280;49153;45.568;11.894;2023-02-11T01:51:43;103444.91;;;-1.69;66.36
57859;BME280;49153;45.568;11.894;2023-02-11T01:54:14;103450.91;;;-1.72;66.25
57859;BME280;49153;45.568;11.894;2023-02-11T01:56:59;103472.53;;;-1.68;66.47
57859;BME280;49153;45.568;11.894;2023-02-11T02:02:30;103453.00;;;-1.55;66.76
57859;BME280;49153;45.568;11.894;2023-02-11T02:05:08;103466.28;;;-1.40;67.09
57859;BME280;49153;45.568;11.894;2023-02-11T02:07:55;103463.78;;;-1.36;66.96
57859;BME280;49153;45.568;11.894;2023-02-11T02:10:24;103443.50;;;-1.56;66.85
57859;BME280;49153;45.568;11.894;2023-02-11T02:12:51;103456.31;;;-1.61;66.55
57859;BME280;49153;45.568;11.894;2023-02-11T02:20:48;103467.41;;;-1.66;67.02
57859;BME280;49153;45.568;11.894;2023-02-11T02:23:47;103461.56;;;-1.58;66.99
57859;BME280;49153;45.568;11.894;2023-02-11T02:34:52;103461.16;;;-1.76;67.15
57859;BME280;49153;45.568;11.894;2023-02-11T02:40:31;103463.16;;;-1.63;67.70
57859;BME280;49153;45.568;11.894;2023-02-11T02:43:00;103437.09;;;-1.72;67.63
57859;BME280;49153;45.568;11.894;2023-02-11T02:45:26;103449.25;;;-1.68;67.93
57859;BME280;49153;45.568;11.894;2023-02-11T02:47:52;103450.31;;;-1.60;67.74
57859;BME280;49153;45.568;11.894;2023-02-11T02:50:21;103432.06;;;-1.66;67.52
57859;BME280;49153;45.568;11.894;2023-02-11T02:53:15;103435.63;;;-1.61;67.65
57859;BME280;49153;45.568;11.894;2023-02-11T02:55:58;103432.97;;;-1.64;67.25
57859;BME280;49153;45.568;11.894;2023-02-11T02:58:32;103437.38;;;-1.60;67.55
57859;BME280;49153;45.568;11.894;2023-02-11T03:01:17;103439.88;;;-1.64;67.54
57859;BME280;49153;45.568;11.894;2023-02-11T03:03:53;103431.09;;;-1.71;68.14
57859;BME280;49153;45.568;11.894;2023-02-11T03:09:05;103436.94;;;-1.78;67.62
57859;BME280;49153;45.568;11.894;2023-02-11T03:11:33;103424.59;;;-1.91;68.46
57859;BME280;49153;45.568;11.894;2023-02-11T03:14:02;103428.53;;;-2.05;68.61
57859;BME280;49153;45.568;11.894;2023-02-11T03:16:35;103434.41;;;-2.13;68.74
57859;BME280;49153;45.568;11.894;2023-02-11T03:19:16;103427.41;;;-2.17;68.99
57859;BME280;49153;45.568;11.894;2023-02-11T03:21:45;103424.81;;;-2.17;68.71
57859;BME280;49153;45.568;11.894;2023-02-11T03:24:14;103414.63;;;-2.10;68.83
57859;BME280;49153;45.568;11.894;2023-02-11T03:26:48;103418.34;;;-1.99;69.19
57859;BME280;49153;45.568;11.894;2023-02-11T03:32:16;103410.84;;;-1.89;69.15
57859;BME280;49153;45.568;11.894;2023-02-11T03:34:51;103413.31;;;-1.93;68.45
57859;BME280;49153;45.568;11.894;2023-02-11T03:37:27;103405.47;;;-1.98;68.70
57859;BME280;49153;45.568;11.894;2023-02-11T03:40:00;103385.31;;;-2.11;69.15
57859;BME280;49153;45.568;11.894;2023-02-11T03:42:31;103393.44;;;-1.96;69.57
57859;BME280;49153;45.568;11.894;2023-02-11T03:45:04;103383.06;;;-1.97;69.17
57859;BME280;49153;45.568;11.894;2023-02-11T03:47:32;103368.91;;;-2.13;69.50
57859;BME280;49153;45.568;11.894;2023-02-11T03:50:00;103399.50;;;-1.94;69.48
57859;BME280;49153;45.568;11.894;2023-02-11T03:52:28;103378.75;;;-1.97;68.99
57859;BME280;49153;45.568;11.894;2023-02-11T03:54:56;103395.25;;;-1.92;69.00
57859;BME280;49153;45.568;11.894;2023-02-11T03:57:22;103386.44;;;-2.00;68.92
57859;BME280;49153;45.568;11.894;2023-02-11T03:59:58;103378.66;;;-2.01;69.46
57859;BME280;49153;45.568;11.894;2023-02-11T04:02:26;103369.88;;;-2.08;69.21
57859;BME280;49153;45.568;11.894;2023-02-11T04:04:52;103370.63;;;-2.14;69.15
57859;BME280;49153;45.568;11.894;2023-02-11T04:07:18;103372.28;;;-2.16;69.41
57859;BME280;49153;45.568;11.894;2023-02-11T04:09:43;103374.03;;;-2.15;69.84
57859;BME280;49153;45.568;11.894;2023-02-11T04:12:08;103362.03;;;-2.13;69.27
57859;BME280;49153;45.568;11.894;2023-02-11T04:14:34;103379.44;;;-2.04;69.41
57859;BME280;49153;45.568;11.894;2023-02-11T04:16:59;103368.28;;;-2.03;69.01
57859;BME280;49153;45.568;11.894;2023-02-11T04:19:25;103377.06;;;-1.95;69.06
57859;BME280;49153;45.568;11.894;2023-02-11T04:21:50;103371.03;;;-1.95;69.44
57859;BME280;49153;45.568;11.894;2023-02-11T04:24:15;103373.69;;;-1.92;69.11
57859;BME280;49153;45.568;11.894;2023-02-11T04:26:41;103371.16;;;-1.89;69.13
57859;BME280;49153;45.568;11.894;2023-02-11T04:29:06;103365.59;;;-2.07;68.69
57859;BME280;49153;45.568;11.894;2023-02-11T04:31:32;103362.91;;;-2.12;69.09
57859;BME280;49153;45.568;11.894;2023-02-11T04:33:57;103370.78;;;-2.06;68.92
57859;BME280;49153;45.568;11.894;2023-02-11T04:36:23;103371.63;;;-2.07;69.33
57859;BME280;49153;45.568;11.894;2023-02-11T04:38:49;103354.16;;;-2.17;69.62
57859;BME280;49153;45.568;11.894;2023-02-11T04:41:14;103365.50;;;-2.12;69.45
57859;BME280;49153;45.568;11.894;2023-02-11T04:43:40;103365.34;;;-2.17;69.90
57859;BME280;49153;45.568;11.894;2023-02-11T04:46:05;103363.47;;;-2.24;69.47
57859;BME280;49153;45.568;11.894;2023-02-11T04:48:37;103365.25;;;-2.23;69.62
57859;BME280;49153;45.568;11.894;2023-02-11T04:51:02;103367.03;;;-2.19;69.75
57859;BME280;49153;45.568;11.894;2023-02-11T04:53:28;103358.38;;;-2.21;69.63
57859;BME280;49153;45.568;11.894;2023-02-11T04:55:53;103356.63;;;-2.22;69.75
57859;BME280;49153;45.568;11.894;2023-02-11T04:58:19;103337.28;;;-2.39;69.81
57859;BME280;49153;45.568;11.894;2023-02-11T05:00:45;103354.75;;;-2.29;69.57
57859;BME280;49153;45.568;11.894;2023-02-11T05:03:11;103350.19;;;-2.39;69.51
57859;BME280;49153;45.568;11.894;2023-02-11T05:05:38;103347.47;;;-2.45;70.19
57859;BME280;49153;45.568;11.894;2023-02-11T05:08:10;103335.16;;;-2.55;69.76
57859;BME280;49153;45.568;11.894;2023-02-11T05:10:36;103331.59;;;-2.59;70.42
57859;BME280;49153;45.568;11.894;2023-02-11T05:13:02;103351.66;;;-2.50;70.35
57859;BME280;49153;45.568;11.894;2023-02-11T05:15:28;103327.91;;;-2.68;69.75
57859;BME280;49153;45.568;11.894;2023-02-11T05:17:53;103344.66;;;-2.54;70.64
57859;BME280;49153;45.568;11.894;2023-02-11T05:20:19;103359.47;;;-2.47;70.52
57859;BME280;49153;45.568;11.894;2023-02-11T05:22:45;103346.50;;;-2.48;70.95
57859;BME280;49153;45.568;11.894;2023-02-11T05:25:10;103354.44;;;-2.41;70.35
57859;BME280;49153;45.568;11.894;2023-02-11T05:27:36;103309.22;;;-2.58;70.83
57859;BME280;49153;45.568;11.894;2023-02-11T05:30:01;103331.97;;;-2.45;70.69
57859;BME280;49153;45.568;11.894;2023-02-11T05:32:26;103331.22;;;-2.39;70.65
57859;BME280;49153;45.568;11.894;2023-02-11T05:34:52;103323.44;;;-2.41;70.16
57859;BME280;49153;45.568;11.894;2023-02-11T05:37:17;103341.72;;;-2.32;70.35
57859;BME280;49153;45.568;11.894;2023-02-11T05:39:43;103330.50;;;-2.34;70.41
57859;BME280;49153;45.568;11.894;2023-02-11T05:42:08;103333.03;;;-2.35;69.65
57859;BME280;49153;45.568;11.894;2023-02-11T05:44:34;103318.13;;;-2.47;69.80
57859;BME280;49153;45.568;11.894;2023-02-11T05:46:59;103306.66;;;-2.58;70.21
57859;BME280;49153;45.568;11.894;2023-02-11T05:49:25;103334.53;;;-2.45;69.99
57859;BME280;49153;45.568;11.894;2023-02-11T05:51:50;103332.00;;;-2.42;69.96
57859;BME280;49153;45.568;11.894;2023-02-11T05:54:16;103318.06;;;-2.50;70.26
57859;BME280;49153;45.568;11.894;2023-02-11T05:56:42;103318.78;;;-2.56;70.48
57859;BME280;49153;45.568;11.894;2023-02-11T05:59:07;103320.59;;;-2.51;70.82
57859;BME280;49153;45.568;11.894;2023-02-11T06:01:33;103337.13;;;-2.45;70.85
57859;BME280;49153;45.568;11.894;2023-02-11T06:03:58;103324.00;;;-2.52;70.85
57859;BME280;49153;45.568;11.894;2023-02-11T06:06:24;103333.72;;;-2.44;70.87
57859;BME280;49153;45.568;11.894;2023-02-11T06:08:49;103310.91;;;-2.60;70.46
57859;BME280;49153;45.568;11.894;2023-02-11T06:11:15;103314.53;;;-2.52;70.77
57859;BME280;49153;45.568;11.894;2023-02-11T06:13:42;103327.66;;;-2.44;70.82
57859;BME280;49153;45.568;11.894;2023-02-11T06:16:08;103331.81;;;-2.51;70.18
57859;BME280;49153;45.568;11.894;2023-02-11T06:18:34;103322.16;;;-2.58;70.23
57859;BME280;49153;45.568;11.894;2023-02-11T06:21:00;103323.72;;;-2.65;70.70
57859;BME280;49153;45.568;11.894;2023-02-11T06:23:26;103315.09;;;-2.65;71.17
57859;BME280;49153;45.568;11.894;2023-02-11T06:25:52;103313.41;;;-2.63;70.70
57859;BME280;49153;45.568;11.894;2023-02-11T06:28:18;103315.13;;;-2.64;71.13
57859;BME280;49153;45.568;11.894;2023-02-11T06:30:44;103317.75;;;-2.62;71.23
57859;BME280;49153;45.568;11.894;2023-02-11T06:33:09;103303.69;;;-2.73;71.10
57859;BME280;49153;45.568;11.894;2023-02-11T06:35:37;103323.69;;;-2.66;71.24
57859;BME280;49153;45.568;11.894;2023-02-11T06:38:03;103326.97;;;-2.72;70.62
57859;BME280;49153;45.568;11.894;2023-02-11T06:40:29;103330.16;;;-2.82;71.56
57859;BME280;49153;45.568;11.894;2023-02-11T06:42:54;103325.94;;;-2.78;71.55
57859;BME280;49153;45.568;11.894;2023-02-11T06:45:20;103334.69;;;-2.73;71.42
57859;BME280;49153;45.568;11.894;2023-02-11T06:48:08;103338.09;;;-2.74;71.92
57859;BME280;49153;45.568;11.894;2023-02-11T06:50:33;103317.31;;;-2.80;72.31
57859;BME280;49153;45.568;11.894;2023-02-11T06:52:59;103309.50;;;-2.82;71.75
57859;BME280;49153;45.568;11.894;2023-02-11T06:55:26;103318.47;;;-2.68;72.47
57859;BME280;49153;45.568;11.894;2023-02-11T06:57:52;103327.16;;;-2.64;72.24
57859;BME280;49153;45.568;11.894;2023-02-11T07:00:18;103300.94;;;-2.79;72.39
57859;BME280;49153;45.568;11.894;2023-02-11T07:02:43;103342.97;;;-2.52;72.14
57859;BME280;49153;45.568;11.894;2023-02-11T07:05:09;103321.16;;;-2.63;72.94
57859;BME280;49153;45.568;11.894;2023-02-11T07:07:35;103346.44;;;-2.51;72.90
57859;BME280;49153;45.568;11.894;2023-02-11T07:10:00;103353.41;;;-2.49;73.39
57859;BME280;49153;45.568;11.894;2023-02-11T07:12:28;103354.44;;;-2.41;73.32
57859;BME280;49153;45.568;11.894;2023-02-11T07:14:55;103351.03;;;-2.40;73.79
57859;BME280;49153;45.568;11.894;2023-02-11T07:17:21;103355.56;;;-2.30;73.19
57859;BME280;49153;45.568;11.894;2023-02-11T07:19:46;103354.03;;;-2.22;73.35
57859;BME280;49153;45.568;11.894;2023-02-11T07:22:11;103341.88;;;-2.26;73.24
57859;BME280;49153;45.568;11.894;2023-02-11T07:24:37;103329.88;;;-2.24;73.91
57859;BME280;49153;45.568;11.894;2023-02-11T07:27:02;103356.13;;;-2.05;73.95
57859;BME280;49153;45.568;11.894;2023-02-11T07:29:29;103328.28;;;-2.19;74.71
57859;BME280;49153;45.568;11.894;2023-02-11T07:31:55;103354.75;;;-1.91;75.27
57859;BME280;49153;45.568;11.894;2023-02-11T07:34:20;103357.59;;;-1.81;74.62
57859;BME280;49153;45.568;11.894;2023-02-11T07:36:46;103360.53;;;-1.64;75.09
57859;BME280;49153;45.568;11.894;2023-02-11T07:39:13;103355.63;;;-1.50;74.90
57859;BME280;49153;45.568;11.894;2023-02-11T07:41:38;103348.88;;;-1.42;74.69
57859;BME280;49153;45.568;11.894;2023-02-11T07:44:04;103355.31;;;-1.23;74.53
57859;BME280;49153;45.568;11.894;2023-02-11T07:46:30;103352.19;;;-1.07;74.88
57859;BME280;49153;45.568;11.894;2023-02-11T07:48:55;103347.28;;;-0.92;74.80
57859;BME280;49153;45.568;11.894;2023-02-11T07:51:27;103356.28;;;-0.72;75.01
57859;BME280;49153;45.568;11.894;2023-02-11T07:54:08;103351.38;;;-0.55;74.53
57859;BME280;49153;45.568;11.894;2023-02-11T07:56:34;103344.63;;;-0.46;74.12
57859;BME280;49153;45.568;11.894;2023-02-11T07:59:01;103358.78;;;-0.25;74.28
57859;BME280;49153;45.568;11.894;2023-02-11T08:01:28;103353.66;;;-0.22;74.98
57859;BME280;49153;45.568;11.894;2023-02-11T08:03:58;103347.78;;;-0.09;74.63
57859;BME280;49153;45.568;11.894;2023-02-11T08:06:28;103375.03;;;0.20;74.54
57859;BME280;49153;45.568;11.894;2023-02-11T08:08:55;103372.69;;;0.38;74.51
57859;BME280;49153;45.568;11.894;2023-02-11T08:11:26;103359.94;;;0.57;73.87
57859;BME280;49153;45.568;11.894;2023-02-11T08:13:53;103364.44;;;0.71;73.02
57859;BME280;49153;45.568;11.894;2023-02-11T08:16:21;103354.22;;;0.87;73.33
57859;BME280;49153;45.568;11.894;2023-02-11T08:18:47;103346.63;;;1.03;73.80
57859;BME280;49153;45.568;11.894;2023-02-11T08:21:13;103319.78;;;1.04;73.85
57859;BME280;49153;45.568;11.894;2023-02-11T08:23:40;103341.69;;;1.34;73.86
57859;BME280;49153;45.568;11.894;2023-02-11T08:26:09;103328.78;;;1.43;73.86
57859;BME280;49153;45.568;11.894;2023-02-11T08:28:39;103329.78;;;1.60;72.55
57859;BME280;49153;45.568;11.894;2023-02-11T08:31:15;103335.06;;;1.70;72.09
57859;BME280;49153;45.568;11.894;2023-02-11T08:33:41;103349.13;;;1.95;72.41
57859;BME280;49153;45.568;11.894;2023-02-11T08:36:18;103338.78;;;2.04;71.50
57859;BME280;49153;45.568;11.894;2023-02-11T08:38:45;103351.06;;;2.27;71.82
57859;BME280;49153;45.568;11.894;2023-02-11T08:41:11;103338.97;;;2.41;70.61
57859;BME280;49153;45.568;11.894;2023-02-11T08:43:40;103332.03;;;2.49;69.67
57859;BME280;49153;45.568;11.894;2023-02-11T08:46:07;103335.56;;;2.66;70.24
57859;BME280;49153;45.568;11.894;2023-02-11T08:48:33;103351.28;;;2.87;69.61
57859;BME280;49153;45.568;11.894;2023-02-11T08:50:59;103352.19;;;3.00;68.96
57859;BME280;49153;45.568;11.894;2023-02-11T08:53:29;103336.53;;;3.03;69.18
57859;BME280;49153;45.568;11.894;2023-02-11T08:55:54;103356.56;;;3.24;69.87
57859;BME280;49153;45.568;11.894;2023-02-11T08:58:21;103324.41;;;3.19;69.39
57859;BME280;49153;45.568;11.894;2023-02-11T09:00:47;103363.53;;;3.46;69.19
57859;BME280;49153;45.568;11.894;2023-02-11T09:03:14;103361.81;;;3.59;68.79
57859;BME280;49153;45.568;11.894;2023-02-11T09:05:45;103341.81;;;3.59;68.49
57859;BME280;49153;45.568;11.894;2023-02-11T09:08:11;103333.97;;;3.62;67.39
57859;BME280;49153;45.568;11.894;2023-02-11T09:10:46;103372.25;;;3.91;67.30
57859;BME280;49153;45.568;11.894;2023-02-11T09:13:12;103334.81;;;3.81;66.85
57859;BME280;49153;45.568;11.894;2023-02-11T09:15:37;103365.25;;;4.05;66.82
57859;BME280;49153;45.568;11.894;2023-02-11T09:18:04;103372.19;;;4.16;67.03
57859;BME280;49153;45.568;11.894;2023-02-11T09:20:30;103372.19;;;4.27;66.42
57859;BME280;49153;45.568;11.894;2023-02-11T09:22:57;103374.75;;;4.35;66.24
57859;BME280;49153;45.568;11.894;2023-02-11T09:25:23;103377.34;;;4.41;64.33
57859;BME280;49153;45.568;11.894;2023-02-11T09:27:49;103378.22;;;4.49;65.29
57859;BME280;49153;45.568;11.894;2023-02-11T09:30:15;103380.75;;;4.61;63.83
57859;BME280;49153;45.568;11.894;2023-02-11T09:32:41;103367.69;;;4.62;63.06
57859;BME280;49153;45.568;11.894;2023-02-11T09:35:06;103392.00;;;4.81;62.74
57859;BME280;49153;45.568;11.894;2023-02-11T09:37:32;103379.75;;;4.89;60.20
57859;BME280;49153;45.568;11.894;2023-02-11T09:39:57;103373.63;;;4.95;59.30
57859;BME280;49153;45.568;11.894;2023-02-11T09:42:42;103366.59;;;5.06;59.60
57859;BME280;49153;45.568;11.894;2023-02-11T09:45:21;103370.84;;;5.22;60.00
57859;BME280;49153;45.568;11.894;2023-02-11T09:50:32;103371.50;;;5.55;58.93
57859;BME280;49153;45.568;11.894;2023-02-11T09:55:27;103365.31;;;5.63;57.93
57859;BME280;49153;45.568;11.894;2023-02-11T09:57:54;103366.19;;;5.62;56.71
57859;BME280;49153;45.568;11.894;2023-02-11T10:00:27;103373.03;;;5.77;56.84
57859;BME280;49153;45.568;11.894;2023-02-11T10:09:23;103356.75;;;6.34;53.83
57859;BME280;49153;45.568;11.894;2023-02-11T10:12:21;103351.34;;;6.50;53.94
57859;BME280;49153;45.568;11.894;2023-02-11T10:23:42;103347.28;;;6.92;49.71
57859;BME280;49153;45.568;11.894;2023-02-11T10:26:16;103349.84;;;6.96;50.97
57859;BME280;49153;45.568;11.894;2023-02-11T10:28:46;103359.31;;;7.06;50.29
57859;BME280;49153;45.568;11.894;2023-02-11T10:33:59;103348.59;;;7.21;49.19
57859;BME280;49153;45.568;11.894;2023-02-11T10:36:29;103349.31;;;7.31;49.01
57859;BME280;49153;45.568;11.894;2023-02-11T10:38:55;103348.34;;;7.37;49.63
57859;BME280;49153;45.568;11.894;2023-02-11T10:41:27;103345.66;;;7.41;49.22
57859;BME280;49153;45.568;11.894;2023-02-11T10:43:55;103341.25;;;7.45;49.09
57859;BME280;49153;45.568;11.894;2023-02-11T10:46:23;103335.91;;;7.48;47.93
57859;BME280;49153;45.568;11.894;2023-02-11T10:48:52;103328.03;;;7.49;48.59
57859;BME280;49153;45.568;11.894;2023-02-11T10:53:45;103317.34;;;7.60;47.24
57859;BME280;49153;45.568;11.894;2023-02-11T10:56:18;103313.66;;;7.69;47.57
57859;BME280;49153;45.568;11.894;2023-02-11T10:58:54;103303.94;;;7.74;47.07
57859;BME280;49153;45.568;11.894;2023-02-11T11:01:20;103301.97;;;7.86;47.11
57859;BME280;49153;45.568;11.894;2023-02-11T11:03:48;103302.34;;;8.11;47.56
57859;BME280;49153;45.568;11.894;2023-02-11T11:06:14;103288.88;;;8.28;46.95
57859;BME280;49153;45.568;11.894;2023-02-11T11:08:46;103282.69;;;8.32;46.89
57859;BME280;49153;45.568;11.894;2023-02-11T11:11:17;103264.88;;;8.44;47.24
57859;BME280;49153;45.568;11.894;2023-02-11T11:16:34;103263.09;;;8.83;46.22
57859;BME280;49153;45.568;11.894;2023-02-11T11:21:43;103252.44;;;8.89;43.58
57859;BME280;49153;45.568;11.894;2023-02-11T11:25:00;103260.41;;;8.86;43.35
57859;BME280;49153;45.568;11.894;2023-02-11T11:27:03;103251.00;;;8.76;44.18
57859;BME280;49153;45.568;11.894;2023-02-11T11:29:38;103259.94;;;8.69;43.57
57859;BME280;49153;45.568;11.894;2023-02-11T11:34:42;103264.53;;;8.60;43.92
57859;BME280;49153;45.568;11.894;2023-02-11T11:37:19;103257.56;;;8.57;44.75
57859;BME280;49153;45.568;11.894;2023-02-11T11:40:02;103255.03;;;8.54;45.09
57859;BME280;49153;45.568;11.894;2023-02-11T11:42:34;103250.84;;;8.45;44.77
57859;BME280;49153;45.568;11.894;2023-02-11T11:50:46;103238.81;;;8.34;45.19
57859;BME280;49153;45.568;11.894;2023-02-11T11:56:26;103227.19;;;8.44;46.17
57859;BME280;49153;45.568;11.894;2023-02-11T11:58:53;103233.03;;;8.57;44.66
57859;BME280;49153;45.568;11.894;2023-02-11T12:01:47;103218.13;;;8.57;44.68
57859;BME280;49153;45.568;11.894;2023-02-11T12:07:52;103227.38;;;8.73;43.96
57859;BME280;49153;45.568;11.894;2023-02-11T12:13:14;103220.53;;;9.03;43.70
57859;BME280;49153;45.568;11.894;2023-02-11T12:19:31;103226.63;;;9.39;42.96
57859;BME280;49153;45.568;11.894;2023-02-11T12:21:54;103221.19;;;9.45;41.75
57859;BME280;49153;45.568;11.894;2023-02-11T12:32:20;103200.91;;;9.80;40.95
57859;BME280;49153;45.568;11.894;2023-02-11T12:48:49;103183.00;;;10.49;39.83
57859;BME280;49153;45.568;11.894;2023-02-11T12:54:29;103178.66;;;10.75;40.13
57859;BME280;49153;45.568;11.894;2023-02-11T12:57:02;103179.84;;;10.92;39.23
57859;BME280;49153;45.568;11.894;2023-02-11T13:05:38;103183.34;;;10.93;40.08
57859;BME280;49153;45.568;11.894;2023-02-11T13:08:12;103190.94;;;11.02;39.90
57859;BME280;49153;45.568;11.894;2023-02-11T13:10:40;103177.94;;;10.96;39.15
57859;BME280;49153;45.568;11.894;2023-02-11T13:13:29;103172.06;;;10.88;39.08
57859;BME280;49153;45.568;11.894;2023-02-11T13:16:02;103176.69;;;10.81;39.10
57859;BME280;49153;45.568;11.894;2023-02-11T13:18:51;103158.97;;;10.85;39.10
57859;BME280;49153;45.568;11.894;2023-02-11T13:26:38;103171.38;;;10.83;38.09
57859;BME280;49153;45.568;11.894;2023-02-11T13:31:40;103152.75;;;10.59;38.93
57859;BME280;49153;45.568;11.894;2023-02-11T13:37:36;103159.28;;;10.76;38.49
57859;BME280;49153;45.568;11.894;2023-02-11T13:40:34;103139.38;;;10.66;38.40
57859;BME280;49153;45.568;11.894;2023-02-11T13:43:02;103148.31;;;10.62;37.91
57859;BME280;49153;45.568;11.894;2023-02-11T13:48:02;103132.41;;;10.63;39.45
57859;BME280;49153;45.568;11.894;2023-02-11T13:50:29;103103.53;;;10.58;38.74
57859;BME280;49153;45.568;11.894;2023-02-11T13:52:59;103132.75;;;10.79;38.96
57859;BME280;49153;45.568;11.894;2023-02-11T13:55:26;103116.38;;;10.69;38.76
57859;BME280;49153;45.568;11.894;2023-02-11T14:16:27;103109.31;;;11.21;37.61
57859;BME280;49153;45.568;11.894;2023-02-11T14:21:21;103097.53;;;11.29;38.58
57859;BME280;49153;45.568;11.894;2023-02-11T14:23:50;103085.66;;;11.16;37.68
57859;BME280;49153;45.568;11.894;2023-02-11T14:28:46;103062.63;;;10.96;37.85
57859;BME280;49153;45.568;11.894;2023-02-11T14:31:28;103068.97;;;10.91;38.58
57859;BME280;49153;45.568;11.894;2023-02-11T14:36:44;103081.09;;;10.96;37.61
57859;BME280;49153;45.568;11.894;2023-02-11T14:42:06;103074.59;;;10.82;38.74
57859;BME280;49153;45.568;11.894;2023-02-11T14:44:38;103064.09;;;10.79;37.93
57859;BME280;49153;45.568;11.894;2023-02-11T14:47:04;103056.34;;;10.74;38.13
57859;BME280;49153;45.568;11.894;2023-02-11T14:49:33;103078.84;;;10.86;38.59
57859;BME280;49153;45.568;11.894;2023-02-11T14:52:08;103072.75;;;10.84;38.78
57859;BME280;49153;45.568;11.894;2023-02-11T14:54:41;103074.25;;;10.91;39.46
57859;BME280;49153;45.568;11.894;2023-02-11T14:57:11;103068.06;;;10.92;40.08
57859;BME280;49153;45.568;11.894;2023-02-11T14:59:37;103071.81;;;10.85;39.52
57859;BME280;49153;45.568;11.894;2023-02-11T15:02:18;103052.06;;;10.72;39.22
57859;BME280;49153;45.568;11.894;2023-02-11T15:04:44;103060.13;;;10.67;39.72
57859;BME280;49153;45.568;11.894;2023-02-11T15:07:12;103049.84;;;10.59;39.71
57859;BME280;49153;45.568;11.894;2023-02-11T15:12:18;103046.69;;;10.48;40.33
57859;BME280;49153;45.568;11.894;2023-02-11T15:14:48;103041.03;;;10.34;40.07
57859;BME280;49153;45.568;11.894;2023-02-11T15:17:19;103032.47;;;10.26;40.40
57859;BME280;49153;45.568;11.894;2023-02-11T15:19:49;103027.19;;;10.26;41.36
57859;BME280;49153;45.568;11.894;2023-02-11T15:22:19;103016.56;;;10.29;42.05
57859;BME280;49153;45.568;11.894;2023-02-11T15:25:18;103015.75;;;10.27;42.82
57859;BME280;49153;45.568;11.894;2023-02-11T15:27:49;103017.59;;;10.25;42.47
57859;BME280;49153;45.568;11.894;2023-02-11T15:32:50;103026.88;;;10.09;42.51
57859;BME280;49153;45.568;11.894;2023-02-11T15:35:18;103020.75;;;10.08;43.15